createdAt,value
2022-11-30T00:02:12.106Z,30.01
2022-11-30T00:04:42.322Z,29.98
2022-11-30T00:07:13.731Z,29.98
2022-11-30T00:09:44.010Z,29.99
2022-11-30T00:12:14.223Z,29.98
2022-11-30T00:14:45.813Z,29.99
2022-11-30T00:17:16.964Z,29.98
2022-11-30T00:19:49.451Z,29.99
2022-11-30T00:22:19.725Z,29.99
2022-11-30T00:24:50.329Z,30.00
2022-11-30T00:27:20.928Z,30.00
2022-11-30T00:29:51.161Z,29.99
2022-11-30T00:32:21.370Z,30.00
2022-11-30T00:34:52.332Z,30.01
2022-11-30T00:37:22.952Z,30.00
2022-11-30T00:39:53.188Z,29.99
2022-11-30T00:42:23.371Z,30.02
2022-11-30T00:44:53.456Z,30.00
2022-11-30T00:47:23.422Z,30.02
2022-11-30T00:49:53.364Z,30.03
2022-11-30T00:52:25.159Z,30.03
2022-11-30T00:54:55.660Z,30.06
2022-11-30T00:57:26.112Z,30.07
2022-11-30T00:59:56.779Z,30.07
2022-11-30T01:02:27.676Z,30.07
2022-11-30T01:04:58.010Z,30.08
2022-11-30T01:07:28.175Z,30.07
2022-11-30T01:09:58.326Z,30.08
2022-11-30T01:12:28.398Z,30.08
2022-11-30T01:14:58.489Z,30.10
2022-11-30T01:17:28.520Z,30.10
2022-11-30T01:19:59.224Z,30.10
2022-11-30T01:22:29.369Z,30.10
2022-11-30T01:24:59.345Z,30.11
2022-11-30T01:27:29.304Z,30.12
2022-11-30T01:29:59.960Z,30.11
2022-11-30T01:32:30.751Z,30.11
2022-11-30T01:35:00.985Z,30.11
2022-11-30T01:37:32.344Z,30.11
2022-11-30T01:40:02.146Z,30.14
2022-11-30T01:42:32.177Z,30.13
2022-11-30T01:45:04.087Z,30.11
2022-11-30T01:47:58.925Z,30.13
2022-11-30T01:50:38.786Z,30.13
2022-11-30T01:53:13.104Z,30.14
2022-11-30T01:55:48.819Z,30.14
2022-11-30T01:58:26.012Z,30.17
2022-11-30T02:00:57.028Z,30.15
2022-11-30T02:03:52.436Z,30.15
2022-11-30T02:06:22.686Z,30.16
2022-11-30T02:08:53.368Z,30.16
2022-11-30T02:11:24.780Z,30.15
2022-11-30T02:14:22.862Z,30.17
2022-11-30T02:16:55.812Z,30.18
2022-11-30T02:19:54.786Z,30.21
2022-11-30T02:23:01.876Z,30.20
2022-11-30T02:25:53.949Z,30.20
2022-11-30T02:29:07.508Z,30.20
2022-11-30T02:31:47.349Z,30.22
2022-11-30T02:34:22.269Z,30.22
2022-11-30T02:36:52.898Z,30.23
2022-11-30T02:39:25.017Z,30.24
2022-11-30T02:41:55.262Z,30.23
2022-11-30T02:44:27.124Z,30.23
2022-11-30T02:47:07.510Z,30.24
2022-11-30T02:49:58.534Z,30.23
2022-11-30T02:52:31.450Z,30.24
2022-11-30T02:55:10.674Z,30.26
2022-11-30T02:57:41.939Z,30.24
2022-11-30T03:00:15.302Z,30.25
2022-11-30T03:02:46.088Z,30.25
2022-11-30T03:05:16.333Z,30.25
2022-11-30T03:07:46.600Z,30.25
2022-11-30T03:10:16.864Z,30.26
2022-11-30T03:12:46.898Z,30.27
2022-11-30T03:15:16.991Z,30.26
2022-11-30T03:17:46.958Z,30.27
2022-11-30T03:20:16.999Z,30.28
2022-11-30T03:22:47.045Z,30.28
2022-11-30T03:25:17.148Z,30.28
2022-11-30T03:27:47.205Z,30.29
2022-11-30T03:30:17.350Z,30.30
2022-11-30T03:32:47.482Z,30.29
2022-11-30T03:35:17.507Z,30.31
2022-11-30T03:37:49.283Z,30.29
2022-11-30T03:40:19.562Z,30.30
2022-11-30T03:42:49.776Z,30.29
2022-11-30T03:45:20.547Z,30.31
2022-11-30T03:47:50.593Z,30.33
2022-11-30T03:50:20.644Z,30.33
2022-11-30T03:52:50.803Z,30.33
2022-11-30T03:55:20.784Z,30.34
2022-11-30T03:57:50.996Z,30.36
2022-11-30T04:00:21.940Z,30.37
2022-11-30T04:02:52.237Z,30.37
2022-11-30T04:05:24.581Z,30.37
2022-11-30T04:07:54.872Z,30.39
2022-11-30T04:10:26.244Z,30.38
2022-11-30T04:12:56.573Z,30.38
2022-11-30T04:15:26.881Z,30.40
2022-11-30T04:17:57.034Z,30.40
2022-11-30T04:20:27.764Z,30.39
2022-11-30T04:23:00.421Z,30.40
2022-11-30T04:25:30.599Z,30.41
2022-11-30T04:28:01.116Z,30.42
2022-11-30T04:30:31.856Z,30.42
2022-11-30T04:33:02.182Z,30.42
2022-11-30T04:35:32.498Z,30.44
2022-11-30T04:38:03.550Z,30.44
2022-11-30T04:40:33.889Z,30.44
2022-11-30T04:43:04.219Z,30.46
2022-11-30T04:45:35.701Z,30.46
2022-11-30T04:48:07.436Z,30.44
2022-11-30T04:50:38.530Z,30.45
2022-11-30T04:53:09.255Z,30.46
2022-11-30T04:55:40.696Z,30.48
2022-11-30T04:58:10.497Z,30.47
2022-11-30T05:00:40.770Z,30.46
2022-11-30T05:03:10.999Z,30.46
2022-11-30T05:05:41.339Z,30.47
2022-11-30T05:08:11.982Z,30.47
2022-11-30T05:10:42.710Z,30.47
2022-11-30T05:13:12.890Z,30.49
2022-11-30T05:15:43.047Z,30.49
2022-11-30T05:18:13.085Z,30.50
2022-11-30T05:21:01.482Z,30.51
2022-11-30T05:23:32.236Z,30.51
2022-11-30T05:26:20.596Z,30.53
2022-11-30T05:31:36.751Z,30.52
2022-11-30T05:34:25.181Z,30.53
2022-11-30T05:37:15.001Z,30.56
2022-11-30T05:40:03.427Z,30.54
2022-11-30T05:42:33.861Z,30.55
2022-11-30T05:48:08.454Z,30.57
2022-11-30T05:50:38.892Z,30.56
2022-11-30T05:53:09.048Z,30.56
2022-11-30T05:55:39.116Z,30.58
2022-11-30T05:58:09.301Z,30.58
2022-11-30T06:00:39.718Z,30.57
2022-11-30T06:03:30.215Z,30.58
2022-11-30T06:06:00.651Z,30.60
2022-11-30T06:08:30.932Z,30.60
2022-11-30T06:11:04.387Z,30.60
2022-11-30T06:13:37.302Z,30.61
2022-11-30T06:16:08.622Z,30.61
2022-11-30T06:18:40.605Z,30.61
2022-11-30T06:21:13.762Z,30.63
2022-11-30T06:26:29.525Z,30.61
2022-11-30T06:28:59.530Z,30.62
2022-11-30T06:31:29.968Z,30.62
2022-11-30T06:34:01.712Z,30.63
2022-11-30T06:36:35.725Z,30.64
2022-11-30T06:39:49.967Z,30.63
2022-11-30T06:42:15.655Z,30.65
2022-11-30T06:44:46.162Z,30.64
2022-11-30T06:47:16.588Z,30.65
2022-11-30T06:49:46.820Z,30.65
2022-11-30T06:52:17.109Z,30.66
2022-11-30T06:54:48.771Z,30.66
2022-11-30T06:57:37.278Z,30.64
2022-11-30T07:00:08.484Z,30.65
2022-11-30T07:02:39.393Z,30.65
2022-11-30T07:05:09.959Z,30.64
2022-11-30T07:07:58.520Z,30.61
2022-11-30T07:10:48.304Z,30.64
2022-11-30T07:13:22.165Z,30.65
2022-11-30T07:15:52.338Z,30.65
2022-11-30T07:18:25.860Z,30.66
2022-11-30T07:21:18.576Z,30.67
2022-11-30T07:24:07.217Z,30.66
2022-11-30T07:26:55.914Z,30.70
2022-11-30T07:29:26.045Z,30.71
2022-11-30T07:31:56.765Z,30.71
2022-11-30T07:34:27.185Z,30.72
2022-11-30T07:36:57.431Z,30.71
2022-11-30T07:48:23.538Z,30.76
2022-11-30T07:53:39.541Z,30.74
2022-11-30T07:56:13.119Z,30.74
2022-11-30T07:58:44.137Z,30.75
2022-11-30T08:01:35.030Z,30.75
2022-11-30T08:04:05.356Z,30.77
2022-11-30T08:06:35.632Z,30.75
2022-11-30T08:09:07.482Z,30.78
2022-11-30T08:11:38.491Z,30.79
2022-11-30T08:14:08.820Z,30.80
2022-11-30T08:16:42.569Z,30.80
2022-11-30T08:19:13.105Z,30.80
2022-11-30T08:21:43.306Z,30.79
2022-11-30T08:24:16.199Z,30.80
2022-11-30T08:26:46.548Z,30.80
2022-11-30T08:29:16.720Z,30.80
2022-11-30T08:31:46.992Z,30.78
2022-11-30T08:34:18.704Z,30.78
2022-11-30T08:36:51.740Z,30.79
2022-11-30T08:39:22.312Z,30.76
2022-11-30T08:41:54.373Z,30.77
2022-11-30T08:44:24.637Z,30.75
2022-11-30T08:46:55.505Z,30.74
2022-11-30T08:49:26.406Z,30.74
2022-11-30T08:54:50.391Z,30.73
2022-11-30T08:57:23.831Z,30.75
2022-11-30T08:59:53.947Z,30.76
2022-11-30T09:02:24.049Z,30.74
2022-11-30T09:04:56.292Z,30.73
2022-11-30T09:07:26.556Z,30.73
2022-11-30T09:09:56.901Z,30.70
2022-11-30T09:12:27.184Z,30.71
2022-11-30T09:14:58.564Z,30.71
2022-11-30T09:17:30.699Z,30.67
2022-11-30T09:20:00.933Z,30.66
2022-11-30T09:22:32.312Z,30.67
2022-11-30T09:25:02.539Z,30.71
2022-11-30T09:27:35.242Z,30.70
2022-11-30T09:30:06.419Z,30.70
2022-11-30T09:32:36.626Z,30.71
2022-11-30T09:35:12.461Z,30.71
2022-11-30T09:37:43.583Z,30.70
2022-11-30T09:40:16.684Z,30.68
2022-11-30T09:43:04.982Z,30.68
2022-11-30T09:45:38.306Z,30.70
2022-11-30T09:48:41.312Z,30.70
2022-11-30T09:51:21.375Z,30.66
2022-11-30T09:54:01.146Z,30.66
2022-11-30T09:56:37.178Z,30.65
2022-11-30T09:59:16.709Z,30.65
2022-11-30T10:01:55.380Z,30.63
2022-11-30T10:04:33.894Z,30.63
2022-11-30T10:07:19.558Z,30.65
2022-11-30T10:10:30.400Z,30.66
2022-11-30T10:13:12.224Z,30.64
2022-11-30T10:16:19.302Z,30.65
2022-11-30T10:19:10.809Z,30.63
2022-11-30T10:21:46.810Z,30.66
2022-11-30T10:24:35.330Z,30.64
2022-11-30T10:27:19.099Z,30.62
2022-11-30T10:29:49.281Z,30.62
2022-11-30T10:32:32.324Z,30.60
2022-11-30T10:35:21.171Z,30.60
2022-11-30T10:37:54.640Z,30.59
2022-11-30T10:41:02.630Z,30.60
2022-11-30T10:43:45.713Z,30.59
2022-11-30T10:46:26.327Z,30.57
2022-11-30T10:49:07.529Z,30.60
2022-11-30T10:51:41.493Z,30.59
2022-11-30T10:54:21.922Z,30.60
2022-11-30T10:56:52.436Z,30.61
2022-11-30T10:59:28.528Z,30.61
2022-11-30T11:01:58.769Z,30.60
2022-11-30T11:04:30.121Z,30.61
2022-11-30T11:07:16.431Z,30.61
2022-11-30T11:09:54.038Z,30.61
2022-11-30T11:12:28.987Z,30.59
2022-11-30T11:15:29.961Z,30.60
2022-11-30T11:18:27.477Z,30.61
2022-11-30T11:21:07.252Z,30.61
2022-11-30T11:23:41.281Z,30.60
2022-11-30T11:26:30.055Z,30.57
2022-11-30T11:29:04.581Z,30.59
2022-11-30T11:31:34.766Z,30.57
2022-11-30T11:34:06.428Z,30.57
2022-11-30T11:36:40.793Z,30.57
2022-11-30T11:39:28.728Z,30.57
2022-11-30T11:41:59.607Z,30.57
2022-11-30T11:44:30.553Z,30.57
2022-11-30T11:47:03.993Z,30.56
2022-11-30T11:49:41.549Z,30.57
2022-11-30T11:52:15.112Z,30.57
2022-11-30T11:54:53.089Z,30.55
2022-11-30T11:57:36.320Z,30.56
2022-11-30T12:00:28.303Z,30.55
2022-11-30T12:03:29.702Z,30.55
2022-11-30T12:06:06.346Z,30.55
2022-11-30T12:08:49.648Z,30.52
2022-11-30T12:11:49.669Z,30.53
2022-11-30T12:14:21.938Z,30.53
2022-11-30T12:17:26.746Z,30.50
2022-11-30T12:20:29.450Z,30.51
2022-11-30T12:23:32.549Z,30.51
2022-11-30T12:26:23.643Z,30.49
2022-11-30T12:29:02.405Z,30.51
2022-11-30T12:32:02.360Z,30.52
2022-11-30T12:35:06.234Z,30.50
2022-11-30T12:37:43.025Z,30.49
2022-11-30T12:40:52.374Z,30.49
2022-11-30T12:43:41.822Z,30.45
2022-11-30T12:46:34.599Z,30.46
2022-11-30T12:49:27.929Z,30.49
2022-11-30T12:52:19.228Z,30.47
2022-11-30T12:55:01.908Z,30.45
2022-11-30T12:58:16.096Z,30.48
2022-11-30T13:01:07.784Z,30.47
2022-11-30T13:04:09.932Z,30.48
2022-11-30T13:06:56.139Z,30.48
2022-11-30T13:09:28.891Z,30.48
2022-11-30T13:12:04.336Z,30.46
2022-11-30T13:14:37.279Z,30.47
2022-11-30T13:17:09.929Z,30.46
2022-11-30T13:20:10.534Z,30.49
2022-11-30T13:22:53.751Z,30.47
2022-11-30T13:28:44.305Z,30.48
2022-11-30T13:31:17.158Z,30.50
2022-11-30T13:33:51.461Z,30.50
2022-11-30T13:36:43.457Z,30.49
2022-11-30T13:39:16.440Z,30.48
2022-11-30T13:42:05.563Z,30.47
2022-11-30T13:44:46.442Z,30.46
2022-11-30T13:47:19.866Z,30.45
2022-11-30T13:50:41.913Z,30.42
2022-11-30T13:53:21.922Z,30.41
2022-11-30T13:55:52.130Z,30.42
2022-11-30T13:58:23.586Z,30.43
2022-11-30T14:01:03.333Z,30.40
2022-11-30T14:03:35.058Z,30.27
2022-11-30T14:06:29.070Z,30.20
2022-11-30T14:09:00.009Z,30.23
2022-11-30T14:11:43.513Z,30.25
2022-11-30T14:14:46.865Z,30.28
2022-11-30T14:17:22.973Z,30.26
2022-11-30T14:20:02.111Z,30.27
2022-11-30T14:22:33.462Z,30.31
2022-11-30T14:25:04.652Z,30.32
2022-11-30T14:27:35.064Z,30.33
2022-11-30T14:30:07.432Z,30.32
2022-11-30T14:32:43.460Z,30.35
2022-11-30T14:35:22.713Z,30.33
2022-11-30T14:37:58.386Z,30.32
2022-11-30T14:40:33.345Z,30.34
2022-11-30T14:43:06.336Z,30.37
2022-11-30T14:45:37.640Z,30.39
2022-11-30T14:48:09.300Z,30.41
2022-11-30T14:50:45.039Z,30.42
2022-11-30T14:53:15.407Z,30.46
2022-11-30T14:55:59.256Z,30.49
2022-11-30T14:58:51.314Z,30.49
2022-11-30T15:01:34.627Z,30.51
2022-11-30T15:04:17.800Z,30.50
2022-11-30T15:06:48.338Z,30.49
2022-11-30T15:09:31.693Z,30.49
2022-11-30T15:12:02.370Z,30.51
2022-11-30T15:14:34.341Z,30.52
2022-11-30T15:17:04.698Z,30.52
2022-11-30T15:19:39.995Z,30.53
2022-11-30T15:22:26.524Z,30.56
2022-11-30T15:24:56.920Z,30.53
2022-11-30T15:27:30.258Z,30.70
2022-11-30T15:30:06.028Z,30.76
2022-11-30T15:32:36.579Z,30.75
2022-11-30T15:35:07.704Z,30.68
2022-11-30T15:37:45.728Z,30.71
2022-11-30T15:40:33.261Z,30.71
2022-11-30T15:43:04.321Z,30.60
2022-11-30T15:45:39.205Z,30.54
2022-11-30T15:48:33.859Z,30.51
2022-11-30T15:51:05.053Z,30.50
2022-11-30T15:53:38.626Z,30.48
2022-11-30T15:56:25.119Z,30.46
2022-11-30T15:59:16.995Z,30.47
2022-11-30T16:02:10.461Z,30.43
2022-11-30T16:04:59.413Z,30.45
2022-11-30T16:07:42.625Z,30.47
2022-11-30T16:10:21.547Z,30.41
2022-11-30T16:12:54.390Z,30.46
2022-11-30T16:15:26.849Z,30.45
2022-11-30T16:18:05.627Z,30.45
2022-11-30T16:20:36.144Z,30.43
2022-11-30T16:23:06.540Z,30.44
2022-11-30T16:25:36.915Z,30.42
2022-11-30T16:28:07.231Z,30.43
2022-11-30T16:30:37.739Z,30.45
2022-11-30T16:33:08.240Z,30.45
2022-11-30T16:35:43.873Z,30.44
2022-11-30T16:38:14.213Z,30.40
2022-11-30T16:40:44.294Z,30.43
2022-11-30T16:43:14.974Z,30.40
2022-11-30T16:45:48.879Z,30.40
2022-11-30T16:48:19.938Z,30.43
2022-11-30T16:50:50.019Z,30.41
2022-11-30T16:53:23.796Z,30.40
2022-11-30T16:55:56.243Z,30.40
2022-11-30T16:58:26.193Z,30.40
2022-11-30T17:00:57.435Z,30.41
2022-11-30T17:03:32.656Z,30.40
2022-11-30T17:06:03.181Z,30.42
2022-11-30T17:08:33.430Z,30.39
2022-11-30T17:11:03.773Z,30.41
2022-11-30T17:13:34.058Z,30.40
2022-11-30T17:16:04.369Z,30.41
2022-11-30T17:18:34.640Z,30.37
2022-11-30T17:21:04.906Z,30.38
2022-11-30T17:23:35.149Z,30.40
2022-11-30T17:26:05.365Z,30.37
2022-11-30T17:28:35.538Z,30.37
2022-11-30T17:31:06.352Z,30.36
2022-11-30T17:33:37.989Z,30.35
2022-11-30T17:36:10.832Z,30.32
2022-11-30T17:38:42.005Z,30.35
2022-11-30T17:41:18.798Z,30.34
2022-11-30T17:43:50.416Z,30.34
2022-11-30T17:46:21.791Z,30.33
2022-11-30T17:48:52.487Z,30.32
2022-11-30T17:51:23.181Z,30.32
2022-11-30T17:53:53.617Z,30.30
2022-11-30T17:56:23.789Z,30.29
2022-11-30T17:58:54.223Z,30.28
2022-11-30T18:01:27.193Z,30.30
2022-11-30T18:03:58.817Z,30.30
2022-11-30T18:06:29.181Z,30.29
2022-11-30T18:09:00.165Z,30.28
2022-11-30T18:11:30.556Z,30.28
2022-11-30T18:14:04.150Z,30.29
2022-11-30T18:16:40.569Z,30.28
2022-11-30T18:19:15.521Z,30.30
2022-11-30T18:21:48.388Z,30.31
2022-11-30T18:24:22.548Z,30.29
2022-11-30T18:26:55.992Z,30.29
2022-11-30T18:29:26.077Z,30.28
2022-11-30T18:31:56.049Z,30.27
2022-11-30T18:34:26.164Z,30.27
2022-11-30T18:36:56.421Z,30.28
2022-11-30T18:39:26.586Z,30.27
2022-11-30T18:41:56.723Z,30.27
2022-11-30T18:44:26.755Z,30.27
2022-11-30T18:46:57.300Z,30.26
2022-11-30T18:49:27.486Z,30.28
2022-11-30T18:51:57.578Z,30.26
2022-11-30T18:54:28.070Z,30.26
2022-11-30T18:56:58.291Z,30.25
2022-11-30T18:59:28.527Z,30.26
2022-11-30T19:02:00.295Z,30.27
2022-11-30T19:04:30.539Z,30.26
2022-11-30T19:07:00.651Z,30.25
2022-11-30T19:09:30.790Z,30.28
2022-11-30T19:12:02.291Z,30.26
2022-11-30T19:14:32.765Z,30.23
2022-11-30T19:17:02.963Z,30.24
2022-11-30T19:19:33.256Z,30.24
2022-11-30T19:22:03.610Z,30.24
2022-11-30T19:24:34.256Z,30.24
2022-11-30T19:27:04.511Z,30.24
2022-11-30T19:29:34.670Z,30.24
2022-11-30T19:32:04.683Z,30.26
2022-11-30T19:34:34.898Z,30.23
2022-11-30T19:37:04.922Z,30.23
2022-11-30T19:39:35.753Z,30.21
2022-11-30T19:42:06.722Z,30.21
2022-11-30T19:44:36.945Z,30.22
2022-11-30T19:47:07.178Z,30.22
2022-11-30T19:49:39.317Z,30.19
2022-11-30T19:52:09.564Z,30.20
2022-11-30T19:54:39.523Z,30.19
2022-11-30T19:57:10.187Z,30.21
2022-11-30T19:59:40.343Z,30.18
2022-11-30T20:02:14.392Z,30.20
2022-11-30T20:04:44.801Z,30.17
2022-11-30T20:07:16.083Z,30.18
2022-11-30T20:09:46.393Z,30.17
2022-11-30T20:12:16.338Z,30.17
2022-11-30T20:14:46.947Z,30.18
2022-11-30T20:17:17.304Z,30.17
2022-11-30T20:19:47.284Z,30.17
2022-11-30T20:22:17.254Z,30.17
2022-11-30T20:24:47.446Z,30.15
2022-11-30T20:27:24.119Z,30.17
2022-11-30T20:29:54.744Z,30.15
2022-11-30T20:32:25.111Z,30.17
2022-11-30T20:34:55.182Z,30.16
2022-11-30T20:37:26.458Z,30.17
2022-11-30T20:39:56.215Z,30.18
2022-11-30T20:42:28.014Z,30.13
2022-11-30T20:45:00.045Z,30.15
2022-11-30T20:47:34.772Z,30.13
2022-11-30T20:50:07.072Z,30.12
2022-11-30T20:52:37.412Z,30.12
2022-11-30T20:55:08.067Z,30.11
2022-11-30T20:57:38.293Z,30.11
2022-11-30T21:00:13.065Z,30.11
2022-11-30T21:02:43.757Z,30.09
2022-11-30T21:05:14.263Z,30.07
2022-11-30T21:07:44.495Z,30.06
2022-11-30T21:10:15.413Z,30.06
2022-11-30T21:12:45.645Z,30.08
2022-11-30T21:15:15.732Z,30.06
2022-11-30T21:17:45.835Z,30.06
2022-11-30T21:20:15.782Z,30.04
2022-11-30T21:22:45.751Z,30.04
2022-11-30T21:25:15.711Z,30.01
2022-11-30T21:27:45.952Z,30.04
2022-11-30T21:30:16.725Z,30.03
2022-11-30T21:32:48.036Z,30.02
2022-11-30T21:35:18.262Z,30.02
2022-11-30T21:37:48.261Z,30.00
2022-11-30T21:40:20.507Z,30.02
2022-11-30T21:42:52.082Z,30.02
2022-11-30T21:45:22.370Z,30.01
2022-11-30T21:47:53.073Z,30.00
2022-11-30T21:50:27.067Z,30.01
2022-11-30T21:52:57.528Z,30.01
2022-11-30T21:55:27.504Z,30.00
2022-11-30T21:57:57.680Z,29.98
2022-11-30T22:00:28.276Z,29.98
2022-11-30T22:02:58.522Z,30.00
2022-11-30T22:05:29.795Z,30.02
2022-11-30T22:07:59.980Z,30.02
2022-11-30T22:10:29.961Z,30.00
2022-11-30T22:13:00.779Z,30.00
2022-11-30T22:15:32.058Z,29.97
2022-11-30T22:18:01.839Z,29.97
2022-11-30T22:20:31.834Z,30.00
2022-11-30T22:23:02.984Z,30.00
2022-11-30T22:25:32.703Z,30.02
2022-11-30T22:28:02.775Z,30.02
2022-11-30T22:30:33.619Z,30.00
2022-11-30T22:33:03.946Z,29.98
2022-11-30T22:35:34.143Z,29.98
2022-11-30T22:38:05.592Z,29.96
2022-11-30T22:40:36.273Z,29.96
2022-11-30T22:43:06.472Z,29.96
2022-11-30T22:45:37.008Z,29.95
2022-11-30T22:48:07.561Z,29.98
2022-11-30T22:50:37.692Z,29.97
2022-11-30T22:55:55.297Z,30.05
2022-11-30T22:58:26.886Z,29.92
2022-11-30T23:00:57.508Z,29.88
2022-11-30T23:03:31.111Z,29.85
2022-11-30T23:06:01.983Z,29.83
2022-11-30T23:08:33.146Z,29.81
2022-11-30T23:11:06.403Z,29.80
2022-11-30T23:13:37.208Z,29.82
2022-11-30T23:16:07.738Z,29.83
2022-11-30T23:19:03.883Z,29.84
2022-11-30T23:21:40.930Z,29.82
2022-11-30T23:24:22.818Z,29.84
2022-11-30T23:26:55.857Z,29.81
2022-11-30T23:29:26.198Z,29.80
2022-11-30T23:31:56.375Z,29.81
2022-11-30T23:34:26.556Z,29.81
2022-11-30T23:36:56.657Z,29.83
2022-11-30T23:39:26.991Z,29.82
2022-11-30T23:41:58.292Z,29.80
2022-11-30T23:44:28.125Z,29.79
2022-11-30T23:46:58.167Z,29.79
2022-11-30T23:49:28.354Z,29.77
2022-11-30T23:52:01.615Z,29.77
2022-11-30T23:54:31.795Z,29.81
2022-11-30T23:57:01.943Z,29.81
2022-11-30T23:59:31.929Z,29.81
